Time;durP1;ratioP1;P1;durP2;ratioP2;P2;SDS_P1;SDS_P2;PMS_P1;PMS_P2;Temp;Humidity;BMP_temperature;BMP_pressure;BME280_temperature;BME280_humidity;BME280_pressure;Samples;Min_cycle;Max_cycle;Signal;HPM_P1;HPM_P2
2021/11/13 00:00:17;;;;;;;6.82;5.68;;;;;;;-0.85;100.00;92959.13;2101690;28;20028;-89
2021/11/13 00:01:18;;;;;;;8.00;5.00;;;;;;;-0.85;100.00;92956.50;2106866;28;20028;-88
2021/11/13 00:02:19;;;;;;;10.50;5.82;;;;;;;-0.82;100.00;92957.69;2115228;28;20019;-88
2021/11/13 00:03:20;;;;;;;8.85;5.80;;;;;;;-0.89;100.00;92953.03;2115420;28;20055;-89
2021/11/13 00:04:21;;;;;;;10.95;5.57;;;;;;;-0.94;100.00;92958.56;2106806;28;20465;-87
2021/11/13 00:05:24;;;;;;;8.85;6.32;;;;;;;-0.87;100.00;92952.72;2098494;28;20020;-88
2021/11/13 00:06:25;;;;;;;9.88;6.25;;;;;;;-0.81;100.00;92951.31;2106796;28;20035;-88
2021/11/13 00:07:26;;;;;;;10.23;5.53;;;;;;;-0.79;100.00;92951.72;2106601;28;20031;-89
2021/11/13 00:08:27;;;;;;;11.32;6.00;;;;;;;-0.76;100.00;92953.66;2100859;28;20032;-87
2021/11/13 00:09:27;;;;;;;10.25;6.13;;;;;;;-0.79;100.00;92949.88;2101315;28;20035;-87
2021/11/13 00:10:29;;;;;;;11.75;6.57;;;;;;;-0.86;100.00;92952.38;2090160;28;20070;-88
2021/11/13 00:11:30;;;;;;;9.98;6.03;;;;;;;-0.93;100.00;92944.34;2081912;28;20029;-88
2021/11/13 00:12:31;;;;;;;10.13;6.20;;;;;;;-0.88;100.00;92944.09;2096126;28;20753;-88
2021/11/13 00:13:33;;;;;;;13.00;6.85;;;;;;;-0.82;100.00;92955.06;2107405;28;20388;-88
2021/11/13 00:14:34;;;;;;;14.05;6.78;;;;;;;-0.81;100.00;92951.31;2107333;28;20051;-87
2021/11/13 00:15:35;;;;;;;11.63;6.97;;;;;;;-0.82;100.00;92944.56;2106610;28;20032;-90
2021/11/13 00:16:36;;;;;;;14.65;6.88;;;;;;;-0.79;100.00;92954.34;2098479;28;20078;-88
2021/11/13 00:17:37;;;;;;;11.75;5.95;;;;;;;-0.84;100.00;92952.75;2090008;28;20024;-90
2021/11/13 00:18:38;;;;;;;11.93;6.90;;;;;;;-0.86;100.00;92955.00;2090148;28;20025;-86
2021/11/13 00:19:40;;;;;;;10.98;6.30;;;;;;;-0.92;100.00;92951.13;2106684;28;20023;-85
2021/11/13 00:20:41;;;;;;;13.57;6.95;;;;;;;-0.98;100.00;92952.50;2098134;28;20504;-85
2021/11/13 00:21:42;;;;;;;10.90;6.57;;;;;;;-1.03;100.00;92955.41;2081834;28;20048;-88
2021/11/13 00:22:44;;;;;;;10.43;6.28;;;;;;;-1.02;100.00;92946.44;2098299;28;20552;-86
2021/11/13 00:23:45;;;;;;;9.82;6.38;;;;;;;-1.06;100.00;92943.75;2098346;28;20405;-87
2021/11/13 00:24:45;;;;;;;12.95;6.75;;;;;;;-1.07;100.00;92936.97;2089850;28;20028;-85
2021/11/13 00:25:47;;;;;;;12.07;7.10;;;;;;;-1.03;100.00;92944.91;2089798;28;20039;-85
2021/11/13 00:26:50;;;;;;;10.95;6.38;;;;;;;-0.94;100.00;92944.72;2081135;28;20025;-86
2021/11/13 00:27:51;;;;;;;10.45;6.10;;;;;;;-1.05;100.00;92941.91;2089358;28;20055;-87
2021/11/13 00:28:52;;;;;;;11.13;6.05;;;;;;;-1.08;100.00;92937.34;2089381;28;20485;-85
2021/11/13 00:29:53;;;;;;;9.88;5.82;;;;;;;-1.08;100.00;92937.34;2089926;28;20028;-86
2021/11/13 00:30:55;;;;;;;10.88;6.45;;;;;;;-1.05;100.00;92931.41;2098377;28;20032;-85
2021/11/13 00:31:56;;;;;;;8.32;5.90;;;;;;;-1.04;100.00;92933.69;2098087;28;20023;-87
2021/11/13 00:32:57;;;;;;;10.23;5.88;;;;;;;-1.07;100.00;92929.13;2090020;28;20478;-86
2021/11/13 00:33:59;;;;;;;8.98;6.13;;;;;;;-1.07;100.00;92929.13;2098084;28;20095;-87
2021/11/13 00:35:00;;;;;;;11.98;6.43;;;;;;;-1.12;100.00;92921.53;2098423;28;20028;-87
2021/11/13 00:36:01;;;;;;;9.93;5.72;;;;;;;-1.07;100.00;92921.25;2098062;28;20024;-86
2021/11/13 00:37:02;;;;;;;10.20;5.40;;;;;;;-0.97;100.00;92927.78;2098166;28;20052;-85
2021/11/13 00:38:03;;;;;;;10.10;6.10;;;;;;;-0.90;100.00;92925.31;2106383;28;20016;-87
2021/11/13 00:39:05;;;;;;;10.93;6.00;;;;;;;-0.87;100.00;92927.25;2090072;28;20500;-87
2021/11/13 00:40:07;;;;;;;9.63;5.97;;;;;;;-1.01;100.00;92926.97;2081638;28;20021;-87
2021/11/13 00:41:09;;;;;;;12.90;6.22;;;;;;;-1.06;100.00;92925.38;2090238;28;20515;-87
2021/11/13 00:42:10;;;;;;;9.68;6.18;;;;;;;-1.02;100.00;92923.59;2081620;28;20549;-87
2021/11/13 00:43:11;;;;;;;9.73;5.88;;;;;;;-1.02;100.00;92926.22;2098158;28;20029;-86
2021/11/13 00:44:13;;;;;;;11.88;6.38;;;;;;;-0.86;100.00;92922.75;2090000;28;20079;-87
2021/11/13 00:45:14;;;;;;;7.82;5.43;;;;;;;-0.90;100.00;92916.69;2090178;28;20035;-86
2021/11/13 00:46:16;;;;;;;8.82;5.68;;;;;;;-0.95;100.00;92924.84;2090141;28;20021;-86
2021/11/13 00:47:17;;;;;;;10.73;5.75;;;;;;;-0.93;100.00;92922.59;2089807;28;20017;-87
2021/11/13 00:48:19;;;;;;;10.70;5.43;;;;;;;-1.02;100.00;92918.34;2097326;28;20150;-87
2021/11/13 00:49:20;;;;;;;10.57;5.68;;;;;;;-1.05;100.00;92919.06;2098064;28;20024;-85
2021/11/13 00:50:21;;;;;;;9.70;5.72;;;;;;;-1.02;100.00;92920.97;2098181;28;20032;-87
2021/11/13 00:51:22;;;;;;;13.00;5.95;;;;;;;-1.08;100.00;92926.84;2098316;28;20448;-84
2021/11/13 00:52:23;;;;;;;9.77;5.65;;;;;;;-1.11;100.00;92915.19;2089856;28;20469;-86
2021/11/13 00:53:25;;;;;;;9.13;5.38;;;;;;;-1.13;100.00;92916.66;2090016;28;20120;-88
2021/11/13 00:54:26;;;;;;;9.75;5.22;;;;;;;-1.01;100.00;92908.59;2098090;28;20500;-85
2021/11/13 00:55:27;;;;;;;12.02;5.57;;;;;;;-0.94;100.00;92910.59;2089854;28;20551;-85
2021/11/13 00:56:29;;;;;;;7.53;5.05;;;;;;;-0.99;100.00;92913.53;2089818;28;20634;-85
2021/11/13 00:57:30;;;;;;;7.43;4.72;;;;;;;-0.97;100.00;92914.66;2081719;28;20108;-87
2021/11/13 00:58:31;;;;;;;8.68;5.10;;;;;;;-0.86;100.00;92904.38;2089775;28;20021;-87
2021/11/13 00:59:32;;;;;;;8.98;5.03;;;;;;;-0.94;100.00;92911.38;2106249;28;20024;-85
2021/11/13 01:00:33;;;;;;;9.55;5.60;;;;;;;-0.90;100.00;92909.56;2106633;28;20116;-84
2021/11/13 01:01:35;;;;;;;9.90;5.05;;;;;;;-0.92;100.00;92911.78;2097930;28;20083;-85
2021/11/13 01:02:36;;;;;;;8.55;4.53;;;;;;;-1.00;100.00;92909.38;2089676;28;20498;-86
2021/11/13 01:03:37;;;;;;;6.43;3.88;;;;;;;-1.00;100.00;92906.75;2089874;28;20111;-86
2021/11/13 01:04:38;;;;;;;8.00;4.93;;;;;;;-0.99;100.00;92909.03;2089656;28;20432;-85
2021/11/13 01:05:39;;;;;;;8.95;5.25;;;;;;;-0.93;100.00;92906.88;2081450;28;20036;-85
2021/11/13 01:06:41;;;;;;;6.60;4.35;;;;;;;-1.00;100.00;92909.38;2097857;28;20043;-88
2021/11/13 01:07:42;;;;;;;7.20;5.40;;;;;;;-0.99;100.00;92908.28;2106003;28;20521;-86
2021/11/13 01:08:47;;;;;;;11.70;4.68;;;;;;;-1.01;100.00;92900.72;2089329;28;20056;-87
2021/11/13 01:09:48;;;;;;;8.73;5.18;;;;;;;-1.08;100.00;92911.13;2082387;28;20026;-87
2021/11/13 01:10:49;;;;;;;9.00;4.43;;;;;;;-1.11;100.00;92909.94;2089548;28;20047;-85
2021/11/13 01:11:50;;;;;;;10.13;5.30;;;;;;;-1.03;100.00;92908.19;2081471;28;20030;-86
2021/11/13 01:12:52;;;;;;;7.32;4.70;;;;;;;-1.06;100.00;92909.66;2091547;28;20454;-86
2021/11/13 01:13:55;;;;;;;6.85;4.53;;;;;;;-1.15;100.00;92909.09;2104504;28;20027;-86
2021/11/13 01:14:55;;;;;;;8.73;5.63;;;;;;;-1.15;100.00;92906.47;2106606;28;20048;-86
2021/11/13 01:15:56;;;;;;;5.38;4.20;;;;;;;-1.12;100.00;92915.53;2114580;28;20027;-86
2021/11/13 01:16:57;;;;;;;7.22;4.57;;;;;;;-1.02;100.00;92913.09;2106188;28;20023;-87
2021/11/13 01:17:58;;;;;;;6.82;4.50;;;;;;;-1.11;100.00;92909.94;2097643;28;20059;-85
2021/11/13 01:19:00;;;;;;;6.80;4.45;;;;;;;-1.06;100.00;92916.75;2097966;28;20359;-86
2021/11/13 01:20:01;;;;;;;7.78;4.90;;;;;;;-0.90;100.00;92916.69;2106035;28;20016;-86
2021/11/13 01:21:03;;;;;;;8.95;4.13;;;;;;;-0.94;100.00;92910.59;2092064;28;20025;-86
2021/11/13 01:22:05;;;;;;;8.65;4.30;;;;;;;-0.99;100.00;92916.13;2097802;28;20027;-86
2021/11/13 01:23:06;;;;;;;8.18;4.68;;;;;;;-1.07;100.00;92908.13;2081565;28;20025;-85
2021/11/13 01:24:07;;;;;;;6.80;4.70;;;;;;;-1.03;100.00;92911.59;2081176;28;20521;-85
2021/11/13 01:25:09;;;;;;;6.75;4.32;;;;;;;-1.01;100.00;92911.22;2089494;28;20082;-84
2021/11/13 01:26:10;;;;;;;7.18;4.50;;;;;;;-1.02;100.00;92902.59;2097723;28;20421;-85
2021/11/13 01:27:11;;;;;;;7.72;4.15;;;;;;;-1.05;100.00;92905.19;2097805;28;20024;-85
2021/11/13 01:28:13;;;;;;;6.53;4.22;;;;;;;-1.03;100.00;92900.34;2106074;28;20431;-85
2021/11/13 01:29:14;;;;;;;7.32;4.43;;;;;;;-1.10;100.00;92906.22;2097652;28;20069;-86
2021/11/13 01:30:15;;;;;;;7.38;4.65;;;;;;;-1.09;100.00;92905.13;2097430;28;20025;-84
2021/11/13 01:31:16;;;;;;;6.03;4.10;;;;;;;-1.15;100.00;92903.84;2105879;28;20026;-85
2021/11/13 01:32:19;;;;;;;7.28;4.53;;;;;;;-1.16;100.00;92907.59;2105929;28;20030;-85
2021/11/13 01:33:20;;;;;;;8.07;4.63;;;;;;;-1.16;100.00;92907.59;2106127;28;20363;-85
2021/11/13 01:34:22;;;;;;;7.35;4.22;;;;;;;-1.20;100.00;92903.38;2106071;28;20449;-86
2021/11/13 01:35:24;;;;;;;6.82;4.05;;;;;;;-1.19;100.00;92904.91;2097651;28;20405;-86
2021/11/13 01:36:25;;;;;;;8.25;3.95;;;;;;;-1.12;100.00;92905.78;2097580;28;20112;-86
2021/11/13 01:37:26;;;;;;;5.32;4.20;;;;;;;-1.14;100.00;92907.25;2089310;28;20032;-86
2021/11/13 01:38:28;;;;;;;7.25;4.45;;;;;;;-1.09;100.00;92905.13;2097455;28;20676;-87
2021/11/13 01:39:29;;;;;;;5.40;3.72;;;;;;;-1.07;100.00;92908.13;2089125;28;20474;-86
2021/11/13 01:40:30;;;;;;;6.43;4.07;;;;;;;-1.16;100.00;92899.72;2089293;28;20033;-85
2021/11/13 01:41:33;;;;;;;6.07;3.88;;;;;;;-1.14;100.00;92902.78;2089325;28;20024;-85
2021/11/13 01:42:35;;;;;;;6.53;3.95;;;;;;;-0.94;100.00;92902.75;2093273;28;20052;-87
2021/11/13 01:43:38;;;;;;;7.85;4.43;;;;;;;-1.07;100.00;92910.75;2096844;28;20028;-87
2021/11/13 01:44:39;;;;;;;5.55;3.50;;;;;;;-1.09;100.00;92909.59;2098721;28;20120;-88
2021/11/13 01:45:40;;;;;;;5.78;3.33;;;;;;;-1.02;100.00;92915.72;2080861;28;20447;-86
2021/11/13 01:46:41;;;;;;;5.38;3.47;;;;;;;-0.92;100.00;92909.16;2080785;28;20025;-85
2021/11/13 01:47:43;;;;;;;4.05;3.33;;;;;;;-0.89;100.00;92916.31;2097534;28;20591;-85
2021/11/13 01:48:44;;;;;;;5.65;3.67;;;;;;;-0.67;100.00;92914.81;2097318;28;20056;-86
2021/11/13 01:49:46;;;;;;;4.07;3.25;;;;;;;-0.81;100.00;92915.34;2097538;28;20029;-85
2021/11/13 01:50:47;;;;;;;9.65;3.30;;;;;;;-0.93;100.00;92917.38;2105614;28;20027;-86
2021/11/13 01:51:49;;;;;;;4.45;3.03;;;;;;;-0.99;100.00;92918.75;2106018;28;20016;-86
2021/11/13 01:52:51;;;;;;;5.65;3.33;;;;;;;-1.13;100.00;92920.03;2097580;28;20503;-85
2021/11/13 01:53:55;;;;;;;6.82;3.20;;;;;;;-1.00;100.00;92918.00;2089463;28;20017;-86
2021/11/13 01:54:56;;;;;;;4.40;3.38;;;;;;;-1.05;100.00;92924.28;2097913;28;20027;-85
2021/11/13 01:55:57;;;;;;;3.58;2.92;;;;;;;-1.06;100.00;92922.00;2097636;28;20739;-85
2021/11/13 01:56:58;;;;;;;4.10;2.72;;;;;;;-1.05;100.00;92926.16;2098288;28;20484;-85
2021/11/13 01:58:01;;;;;;;4.75;3.00;;;;;;;-1.08;100.00;92922.34;2097533;28;20024;-86
2021/11/13 01:59:05;;;;;;;7.22;3.70;;;;;;;-1.09;100.00;92920.84;2090041;28;20513;-85
2021/11/13 02:00:07;;;;;;;4.00;3.00;;;;;;;-1.08;100.00;92921.59;2101151;28;20020;-87
2021/11/13 02:01:08;;;;;;;8.68;3.38;;;;;;;-1.17;100.00;92921.06;2097593;28;20021;-85
2021/11/13 02:02:09;;;;;;;5.10;3.45;;;;;;;-1.12;100.00;92915.53;2097355;28;20052;-87
2021/11/13 02:03:12;;;;;;;5.32;3.10;;;;;;;-1.20;100.00;92919.13;2082552;28;20040;-87
2021/11/13 02:04:13;;;;;;;4.25;3.50;;;;;;;-1.23;100.00;92910.06;2081566;28;20021;-85
2021/11/13 02:05:14;;;;;;;6.72;3.63;;;;;;;-1.19;100.00;92912.75;2089021;28;20474;-86
2021/11/13 02:06:16;;;;;;;4.95;3.22;;;;;;;-1.24;100.00;92910.44;2100004;28;20407;-85
2021/11/13 02:08:36;;;;;;;;;;;;;;;-1.08;100.00;92914.50;2147677;27;20469;-87
2021/11/13 02:09:37;;;;;;;4.60;2.70;;;;;;;-1.22;100.00;92905.63;2130148;27;19911;-86
2021/11/13 02:10:38;;;;;;;4.50;3.35;;;;;;;-1.25;100.00;92901.06;2115310;28;20024;-88
2021/11/13 02:11:39;;;;;;;5.75;3.53;;;;;;;-1.24;100.00;92900.69;2121509;28;20035;-85
2021/11/13 02:12:40;;;;;;;5.38;3.25;;;;;;;-1.22;100.00;92897.75;2121632;27;20464;-85
2021/11/13 02:13:41;;;;;;;5.45;3.70;;;;;;;-1.04;100.00;92896.19;2104850;28;20028;-87
2021/11/13 02:14:42;;;;;;;4.90;3.25;;;;;;;-1.21;100.00;92901.88;2110278;27;20032;-87
2021/11/13 02:15:43;;;;;;;5.07;3.63;;;;;;;-1.22;100.00;92893.25;2121566;27;20431;-87
2021/11/13 02:16:44;;;;;;;9.70;4.57;;;;;;;-1.24;100.00;92903.31;2130429;27;20031;-87
2021/11/13 02:17:46;;;;;;;7.93;3.90;;;;;;;-0.79;100.00;92907.91;2138816;27;20483;-87
2021/11/13 02:18:47;;;;;;;4.35;3.63;;;;;;;-0.72;100.00;92904.63;2121593;27;20050;-86
2021/11/13 02:19:50;;;;;;;4.43;3.08;;;;;;;-0.79;100.00;92901.88;2121653;27;20027;-87
2021/11/13 02:20:51;;;;;;;8.50;4.18;;;;;;;-0.96;100.00;92905.72;2113718;27;20035;-85
2021/11/13 02:21:52;;;;;;;5.10;3.40;;;;;;;-1.06;100.00;92906.25;2115404;28;20489;-88
2021/11/13 02:22:56;;;;;;;5.45;3.58;;;;;;;-1.16;100.00;92915.47;2104591;28;20107;-86
2021/11/13 02:23:57;;;;;;;4.85;3.00;;;;;;;-1.24;100.00;92908.56;2113535;28;20485;-85
2021/11/13 02:24:58;;;;;;;4.13;3.08;;;;;;;-1.18;100.00;92909.06;2113035;28;20115;-86
2021/11/13 02:25:59;;;;;;;4.90;3.35;;;;;;;-1.15;100.00;92905.72;2096960;28;20033;-88
2021/11/13 02:27:00;;;;;;;5.80;3.25;;;;;;;-1.17;100.00;92907.94;2107882;28;20495;-86
2021/11/13 02:28:02;;;;;;;7.35;4.60;;;;;;;-1.18;100.00;92917.69;2122593;27;20027;-87
2021/11/13 02:29:04;;;;;;;6.15;4.25;;;;;;;-1.19;100.00;92910.91;2121610;28;20039;-86
2021/11/13 02:30:06;;;;;;;8.98;4.20;;;;;;;-1.28;100.00;92918.97;2113487;27;20103;-86
2021/11/13 02:31:11;;;;;;;7.07;4.57;;;;;;;-1.32;100.00;92918.19;2121377;28;20744;-86
2021/11/13 02:32:12;;;;;;;6.22;3.78;;;;;;;-1.34;100.00;92912.50;2109412;27;20024;-87
2021/11/13 02:33:14;;;;;;;5.00;3.83;;;;;;;-1.30;100.00;92913.34;2118334;28;20031;-86
2021/11/13 02:34:15;;;;;;;5.50;3.95;;;;;;;-1.34;100.00;92919.63;2104816;28;20547;-87
2021/11/13 02:35:17;;;;;;;7.82;4.20;;;;;;;-1.42;100.00;92918.72;2112936;28;20028;-86
2021/11/13 02:36:18;;;;;;;5.00;3.80;;;;;;;-1.44;100.00;92920.16;2104574;28;20812;-85
2021/11/13 02:37:26;;;;;;;6.13;3.38;;;;;;;-1.40;100.00;92927.00;2104425;28;20028;-87
2021/11/13 02:38:33;;;;;;;4.90;3.30;;;;;;;-1.31;100.00;92922.31;2118887;27;20383;-85
2021/11/13 02:39:36;;;;;;;4.45;3.28;;;;;;;-1.37;100.00;92925.53;2117828;27;20032;-85
2021/11/13 02:40:38;;;;;;;5.88;3.55;;;;;;;-1.31;100.00;92932.78;2121690;27;20027;-85
2021/11/13 02:41:43;;;;;;;6.88;3.17;;;;;;;-1.31;100.00;92918.94;2130315;27;20035;-88
2021/11/13 02:42:46;;;;;;;5.20;3.28;;;;;;;-1.45;100.00;92927.25;2128575;27;20487;-85
2021/11/13 02:43:48;;;;;;;5.65;3.20;;;;;;;-1.43;100.00;92922.44;2121277;28;20023;-86
2021/11/13 02:44:50;;;;;;;6.28;3.33;;;;;;;-1.34;100.00;92928.22;2112299;28;20065;-87
2021/11/13 02:45:54;;;;;;;7.38;3.20;;;;;;;-1.39;100.00;92917.28;2121372;27;20132;-85
2021/11/13 02:46:55;;;;;;;5.13;3.78;;;;;;;-1.42;100.00;92923.94;2112915;28;20024;-86
2021/11/13 02:47:57;;;;;;;4.72;3.50;;;;;;;-1.37;100.00;92922.91;2104241;28;20040;-85
2021/11/13 02:48:59;;;;;;;4.82;3.42;;;;;;;-1.43;100.00;92924.31;2112948;28;20032;-87
2021/11/13 02:50:00;;;;;;;6.32;3.47;;;;;;;-1.50;100.00;92921.53;2112951;28;20027;-86
2021/11/13 02:51:01;;;;;;;6.68;3.13;;;;;;;-1.48;100.00;92927.97;2104651;28;20032;-87
2021/11/13 02:52:03;;;;;;;4.68;3.13;;;;;;;-1.41;100.00;92929.94;2118563;27;20069;-86
2021/11/13 02:53:15;;;;;;;4.10;2.97;;;;;;;-1.42;100.00;92923.19;2121228;28;20486;-85
2021/11/13 02:54:16;;;;;;;6.55;3.35;;;;;;;-1.58;100.00;92923.25;2107548;28;20024;-85
2021/11/13 02:55:18;;;;;;;3.90;2.70;;;;;;;-1.63;100.00;92926.13;2104314;28;20024;-86
2021/11/13 02:56:20;;;;;;;3.90;2.80;;;;;;;-1.47;100.00;92926.84;2112814;28;20106;-87
2021/11/13 02:57:21;;;;;;;4.22;3.20;;;;;;;-1.44;100.00;92930.66;2109081;28;20031;-88
2021/11/13 02:58:24;;;;;;;9.32;3.38;;;;;;;-1.43;100.00;92935.53;2104300;28;20078;-85
2021/11/13 02:59:25;;;;;;;5.47;3.20;;;;;;;-1.46;100.00;92932.84;2105535;27;20040;-85
2021/11/13 03:00:28;;;;;;;3.63;3.17;;;;;;;-1.49;100.00;92936.16;2112724;28;20401;-87
2021/11/13 03:01:29;;;;;;;5.05;3.28;;;;;;;-1.49;100.00;92936.94;2096862;28;20027;-87
2021/11/13 03:02:30;;;;;;;6.68;3.38;;;;;;;-1.49;100.00;92944.78;2109674;27;20382;-87
2021/11/13 03:03:31;;;;;;;7.35;3.20;;;;;;;-1.54;100.00;92937.97;2112571;28;20420;-86
2021/11/13 03:04:34;;;;;;;10.30;3.47;;;;;;;-1.54;100.00;92942.41;2107253;28;20504;-86
2021/11/13 03:05:44;;;;;;;6.75;3.50;;;;;;;-1.59;100.00;92935.59;2104660;28;20059;-85
2021/11/13 03:06:45;;;;;;;8.43;4.05;;;;;;;-1.61;100.00;92945.66;2114032;28;20430;-86
2021/11/13 03:07:46;;;;;;;6.13;3.25;;;;;;;-1.65;100.00;92938.84;2107188;28;20034;-86
2021/11/13 03:08:50;;;;;;;5.20;3.10;;;;;;;-1.74;100.00;92940.91;2121283;27;20038;-86
2021/11/13 03:09:51;;;;;;;5.95;3.60;;;;;;;-1.62;100.00;92935.53;2129841;27;20503;-86
2021/11/13 03:10:55;;;;;;;5.07;3.10;;;;;;;-1.67;100.00;92938.41;2112815;28;20047;-87
2021/11/13 03:11:57;;;;;;;6.82;3.47;;;;;;;-1.65;100.00;92941.47;2113102;28;20023;-86
2021/11/13 03:12:57;;;;;;;4.60;3.10;;;;;;;-1.69;100.00;92938.75;2109228;28;20073;-85
2021/11/13 03:13:58;;;;;;;6.25;3.20;;;;;;;-1.70;100.00;92937.25;2112840;28;20497;-87
2021/11/13 03:15:06;;;;;;;5.68;3.20;;;;;;;-1.59;100.00;92943.44;2114331;28;20034;-87
2021/11/13 03:16:08;;;;;;;5.15;3.00;;;;;;;-1.54;100.00;92945.81;2108043;28;20020;-88
2021/11/13 03:17:11;;;;;;;7.78;3.90;;;;;;;-1.67;100.00;92946.25;2095852;28;20024;-86
2021/11/13 03:18:13;;;;;;;4.13;2.92;;;;;;;-1.72;100.00;92939.44;2109913;27;20078;-85
2021/11/13 03:19:14;;;;;;;4.03;2.90;;;;;;;-1.69;100.00;92946.63;2120229;28;20062;-88
2021/11/13 03:20:20;;;;;;;3.83;2.85;;;;;;;-1.55;100.00;92944.28;2106629;28;20028;-87
2021/11/13 03:21:21;;;;;;;4.25;3.22;;;;;;;-1.57;100.00;92943.13;2108189;27;20028;-87
2021/11/13 03:22:22;;;;;;;4.07;2.97;;;;;;;-1.54;100.00;92937.19;2119636;27;20027;-85
2021/11/13 03:23:24;;;;;;;5.47;3.17;;;;;;;-1.64;100.00;92938.47;2107045;28;20032;-86
2021/11/13 03:24:28;;;;;;;4.75;3.30;;;;;;;-1.59;100.00;92935.59;2099106;28;20028;-87
2021/11/13 03:25:33;;;;;;;3.85;3.15;;;;;;;-1.45;100.00;92929.88;2115615;28;20027;-85
2021/11/13 03:26:36;;;;;;;6.00;3.30;;;;;;;-1.54;100.00;92940.59;2107034;28;20110;-89
2021/11/13 03:27:40;;;;;;;6.10;3.60;;;;;;;-1.57;100.00;92937.88;2099441;28;20651;-86
2021/11/13 03:28:45;;;;;;;6.80;3.30;;;;;;;-1.58;100.00;92944.22;2115498;28;20031;-86
2021/11/13 03:29:46;;;;;;;4.50;3.10;;;;;;;-1.64;100.00;92940.34;2099129;28;20538;-85
2021/11/13 03:30:47;;;;;;;3.50;2.95;;;;;;;-1.62;100.00;92938.91;2098269;28;20024;-86
2021/11/13 03:31:48;;;;;;;4.63;2.90;;;;;;;-1.67;100.00;92938.41;2107066;28;20048;-87
2021/11/13 03:32:51;;;;;;;4.82;3.10;;;;;;;-1.68;100.00;92937.66;2114479;28;20034;-88
2021/11/13 03:33:52;;;;;;;4.75;3.15;;;;;;;-1.71;100.00;92933.13;2099197;28;20425;-87
2021/11/13 03:34:53;;;;;;;4.97;3.10;;;;;;;-1.65;100.00;92934.34;2098545;28;20035;-86
2021/11/13 03:35:54;;;;;;;4.07;3.33;;;;;;;-1.55;100.00;92936.44;2094310;28;20033;-85
2021/11/13 03:36:55;;;;;;;3.97;3.20;;;;;;;-1.58;100.00;92944.22;2090201;28;20032;-84
2021/11/13 03:38:14;;;;;;;5.70;3.05;;;;;;;-1.57;100.00;92937.88;2106667;28;20052;-86
2021/11/13 03:39:15;;;;;;;4.60;2.80;;;;;;;-1.57;100.00;92943.13;2101011;28;20052;-87
2021/11/13 03:40:16;;;;;;;4.53;2.78;;;;;;;-1.65;100.00;92936.97;2109953;28;20114;-86
2021/11/13 03:41:19;;;;;;;5.30;3.50;;;;;;;-1.66;100.00;92938.09;2098615;28;20031;-86
2021/11/13 03:42:20;;;;;;;4.75;3.28;;;;;;;-1.56;100.00;92940.16;2107228;28;20022;-85
2021/11/13 03:43:21;;;;;;;5.20;3.40;;;;;;;-1.67;100.00;92938.41;2108955;28;20024;-87
2021/11/13 03:44:22;;;;;;;6.18;3.63;;;;;;;-1.68;100.00;92929.78;2106953;28;20024;-86
2021/11/13 03:45:23;;;;;;;4.28;3.20;;;;;;;-1.75;100.00;92928.91;2115353;28;20639;-85
2021/11/13 03:46:24;;;;;;;3.78;3.17;;;;;;;-1.66;100.00;92930.22;2115293;28;20036;-85
2021/11/13 03:47:27;;;;;;;3.90;2.90;;;;;;;-1.65;100.00;92925.72;2106858;28;20380;-85
2021/11/13 03:48:28;;;;;;;4.22;3.33;;;;;;;-1.68;100.00;92923.78;2115497;27;20016;-86
2021/11/13 03:49:28;;;;;;;5.82;3.45;;;;;;;-1.65;100.00;92923.13;2106718;28;20024;-86
2021/11/13 03:50:30;;;;;;;4.80;2.88;;;;;;;-1.71;100.00;92922.63;2106851;28;20050;-85
2021/11/13 03:51:31;;;;;;;4.55;3.35;;;;;;;-1.80;100.00;92922.81;2107735;28;20439;-87
2021/11/13 03:52:32;;;;;;;3.97;2.75;;;;;;;-1.61;100.00;92924.69;2115173;28;20084;-86
2021/11/13 03:53:33;;;;;;;4.20;3.35;;;;;;;-1.61;100.00;92932.56;2101422;28;20075;-86
2021/11/13 03:54:36;;;;;;;3.75;2.83;;;;;;;-1.65;100.00;92920.50;2098609;28;20029;-87
2021/11/13 03:55:37;;;;;;;3.78;2.75;;;;;;;-1.57;100.00;92922.16;2107208;28;20027;-85
2021/11/13 03:56:38;;;;;;;3.95;2.63;;;;;;;-1.54;100.00;92918.84;2115077;28;20026;-85
2021/11/13 03:57:39;;;;;;;5.07;3.17;;;;;;;-1.50;100.00;92911.81;2106573;28;20023;-86
2021/11/13 03:58:40;;;;;;;7.43;3.30;;;;;;;-1.45;100.00;92913.38;2098488;28;20062;-86
2021/11/13 03:59:41;;;;;;;5.43;2.70;;;;;;;-1.42;100.00;92910.09;2106863;28;20020;-86
2021/11/13 04:00:42;;;;;;;4.88;3.15;;;;;;;-1.42;100.00;92910.09;2115223;28;20046;-86
2021/11/13 04:01:43;;;;;;;4.10;3.08;;;;;;;-1.38;100.00;92916.16;2106777;28;20024;-86
2021/11/13 04:02:46;;;;;;;4.75;3.05;;;;;;;-1.43;100.00;92914.56;2098142;28;20028;-85
2021/11/13 04:03:47;;;;;;;3.75;3.00;;;;;;;-1.43;100.00;92917.19;2090508;28;20035;-85
2021/11/13 04:04:48;;;;;;;3.65;2.75;;;;;;;-1.40;100.00;92900.03;2093295;28;20055;-85
2021/11/13 04:05:49;;;;;;;4.38;3.15;;;;;;;-1.45;100.00;92903.66;2099075;28;20019;-86
2021/11/13 04:06:50;;;;;;;4.82;3.10;;;;;;;-1.42;100.00;92905.59;2090051;28;20025;-86
2021/11/13 04:07:51;;;;;;;4.38;2.72;;;;;;;-1.47;100.00;92908.50;2100169;28;20024;-86
2021/11/13 04:08:52;;;;;;;4.95;3.15;;;;;;;-1.39;100.00;92912.03;2098127;28;20024;-86
2021/11/13 04:09:54;;;;;;;4.70;2.97;;;;;;;-1.34;100.00;92911.75;2115190;28;20031;-85
2021/11/13 04:10:55;;;;;;;4.45;2.92;;;;;;;-1.29;100.00;92904.34;2115173;28;20089;-87
2021/11/13 04:11:56;;;;;;;4.30;2.53;;;;;;;-1.31;100.00;92903.19;2098387;28;20481;-90
2021/11/13 04:12:58;;;;;;;3.90;2.53;;;;;;;-1.27;100.00;92912.66;2093712;28;20025;-86
2021/11/13 04:13:59;;;;;;;5.10;3.10;;;;;;;-1.22;100.00;92913.47;2090188;28;20559;-85
2021/11/13 04:15:00;;;;;;;4.70;3.08;;;;;;;-1.28;100.00;92911.13;2098167;28;20055;-86
2021/11/13 04:16:01;;;;;;;4.25;2.97;;;;;;;-1.21;100.00;92910.50;2098396;28;20043;-86
2021/11/13 04:17:04;;;;;;;6.22;3.10;;;;;;;-1.28;100.00;92910.34;2089614;28;20033;-88
2021/11/13 04:18:05;;;;;;;6.03;3.15;;;;;;;-1.25;100.00;92912.28;2091239;28;20119;-86
2021/11/13 04:19:10;;;;;;;4.70;2.80;;;;;;;-1.17;100.00;92916.56;2109702;28;20484;-85
2021/11/13 04:20:12;;;;;;;5.45;2.95;;;;;;;-1.17;100.00;92916.56;2108420;28;20042;-86
2021/11/13 04:21:13;;;;;;;3.08;2.55;;;;;;;-1.16;100.00;92920.69;2104498;28;20024;-86
2021/11/13 04:22:13;;;;;;;4.18;3.05;;;;;;;-1.07;100.00;92921.25;2103892;28;20666;-87
2021/11/13 04:23:14;;;;;;;7.50;3.70;;;;;;;-0.99;100.00;92913.53;2106470;28;20358;-84
2021/11/13 04:24:15;;;;;;;7.38;2.53;;;;;;;-0.88;100.00;92907.38;2106496;28;20485;-87
2021/11/13 04:25:18;;;;;;;3.40;2.78;;;;;;;-0.82;100.00;92920.94;2106424;28;20061;-86
2021/11/13 04:26:19;;;;;;;4.75;2.97;;;;;;;-0.82;100.00;92920.94;2089978;28;20029;-87
2021/11/13 04:27:20;;;;;;;6.50;3.22;;;;;;;-0.86;100.00;92915.63;2081516;28;20021;-87
2021/11/13 04:28:21;;;;;;;3.85;2.90;;;;;;;-0.84;100.00;92910.03;2081742;28;20056;-85
2021/11/13 04:29:23;;;;;;;4.90;2.85;;;;;;;-0.86;100.00;92907.00;2090076;28;20040;-86
2021/11/13 04:30:24;;;;;;;6.15;2.92;;;;;;;-0.77;100.00;92910.91;2090063;28;20087;-87
2021/11/13 04:31:25;;;;;;;4.28;2.60;;;;;;;-0.73;100.00;92910.97;2105523;28;20477;-87
2021/11/13 04:32:29;;;;;;;4.95;3.45;;;;;;;-0.68;100.00;92913.31;2114889;28;20027;-86
2021/11/13 04:33:31;;;;;;;3.95;3.55;;;;;;;-0.66;100.00;92907.69;2123451;27;20429;-87
2021/11/13 04:36:17;;;;;;;3.45;2.92;;;;;;;-0.79;100.00;92907.09;2095542;27;20090;-86
2021/11/13 04:37:19;;;;;;;3.40;2.90;;;;;;;-0.51;100.00;92907.59;2110399;28;20032;-86
2021/11/13 04:38:20;;;;;;;4.00;2.67;;;;;;;-0.47;100.00;92905.03;2106797;28;20376;-86
2021/11/13 04:39:23;;;;;;;5.75;3.10;;;;;;;-0.42;100.00;92903.97;2114980;28;20108;-87
2021/11/13 04:40:28;;;;;;;8.30;2.70;;;;;;;-0.33;100.00;92892.13;2115275;27;20033;-86
2021/11/13 04:41:29;;;;;;;4.72;2.88;;;;;;;-0.47;100.00;92899.78;2123389;27;20031;-87
2021/11/13 04:42:30;;;;;;;4.57;3.25;;;;;;;-0.38;100.00;92902.16;2123147;27;20533;-86
2021/11/13 04:43:31;;;;;;;4.40;3.15;;;;;;;-0.42;100.00;92904.72;2119221;27;20492;-85
2021/11/13 04:44:35;;;;;;;5.88;2.80;;;;;;;-0.45;100.00;92897.56;2106252;28;20112;-87
2021/11/13 04:45:36;;;;;;;5.00;2.50;;;;;;;-0.45;100.00;92900.19;2106913;28;20469;-87
2021/11/13 04:46:37;;;;;;;4.32;3.10;;;;;;;-0.40;100.00;92899.88;2106275;28;20036;-88
2021/11/13 04:47:38;;;;;;;4.28;2.88;;;;;;;-0.47;100.00;92901.66;2106213;28;20023;-87
2021/11/13 04:48:39;;;;;;;3.63;2.75;;;;;;;-0.49;100.00;92896.72;2097852;28;20028;-86
2021/11/13 04:49:40;;;;;;;3.30;2.65;;;;;;;-0.46;100.00;92903.16;2114857;28;20047;-85